sensor_id;sensor_type;location;lat;lon;timestamp;P1;durP1;ratioP1;P2;durP2;ratioP2
39612;SDS011;25303;48.896;13.342;2024-02-21T00:07:43;5.03;;;1.70;;
39612;SDS011;25303;48.896;13.342;2024-02-21T00:17:48;3.53;;;1.13;;
39612;SDS011;25303;48.896;13.342;2024-02-21T00:27:51;4.68;;;1.42;;
39612;SDS011;25303;48.896;13.342;2024-02-21T00:37:56;4.90;;;1.70;;
39612;SDS011;25303;48.896;13.342;2024-02-21T00:48:01;7.90;;;2.05;;
39612;SDS011;25303;48.896;13.342;2024-02-21T00:58:05;7.25;;;2.20;;
39612;SDS011;25303;48.896;13.342;2024-02-21T01:08:09;5.10;;;2.00;;
39612;SDS011;25303;48.896;13.342;2024-02-21T01:18:13;4.35;;;1.67;;
39612;SDS011;25303;48.896;13.342;2024-02-21T01:28:17;10.73;;;1.88;;
39612;SDS011;25303;48.896;13.342;2024-02-21T01:38:24;7.53;;;1.98;;
39612;SDS011;25303;48.896;13.342;2024-02-21T01:48:27;6.15;;;1.90;;
39612;SDS011;25303;48.896;13.342;2024-02-21T01:58:32;5.47;;;1.48;;
39612;SDS011;25303;48.896;13.342;2024-02-21T02:08:39;7.85;;;1.70;;
39612;SDS011;25303;48.896;13.342;2024-02-21T02:18:44;6.88;;;1.90;;
39612;SDS011;25303;48.896;13.342;2024-02-21T02:28:48;6.68;;;2.28;;
39612;SDS011;25303;48.896;13.342;2024-02-21T02:38:52;6.57;;;1.92;;
39612;SDS011;25303;48.896;13.342;2024-02-21T02:48:56;6.03;;;2.20;;
39612;SDS011;25303;48.896;13.342;2024-02-21T02:58:59;8.93;;;2.30;;
39612;SDS011;25303;48.896;13.342;2024-02-21T03:09:04;12.85;;;2.90;;
39612;SDS011;25303;48.896;13.342;2024-02-21T03:19:10;6.43;;;2.10;;
39612;SDS011;25303;48.896;13.342;2024-02-21T03:29:15;8.25;;;3.05;;
39612;SDS011;25303;48.896;13.342;2024-02-21T03:39:19;10.13;;;3.72;;
39612;SDS011;25303;48.896;13.342;2024-02-21T03:49:24;10.63;;;2.88;;
39612;SDS011;25303;48.896;13.342;2024-02-21T03:59:27;14.73;;;4.13;;
39612;SDS011;25303;48.896;13.342;2024-02-21T04:09:32;11.35;;;4.30;;
39612;SDS011;25303;48.896;13.342;2024-02-21T04:19:35;10.52;;;3.08;;
39612;SDS011;25303;48.896;13.342;2024-02-21T04:29:40;9.27;;;4.40;;
39612;SDS011;25303;48.896;13.342;2024-02-21T04:39:43;14.52;;;3.70;;
39612;SDS011;25303;48.896;13.342;2024-02-21T04:49:48;10.77;;;3.30;;
39612;SDS011;25303;48.896;13.342;2024-02-21T04:59:51;7.95;;;2.95;;
39612;SDS011;25303;48.896;13.342;2024-02-21T05:09:55;5.93;;;2.72;;
39612;SDS011;25303;48.896;13.342;2024-02-21T05:19:59;8.73;;;2.72;;
39612;SDS011;25303;48.896;13.342;2024-02-21T05:30:04;15.00;;;5.82;;
39612;SDS011;25303;48.896;13.342;2024-02-21T05:40:09;16.50;;;6.78;;
39612;SDS011;25303;48.896;13.342;2024-02-21T05:50:16;9.90;;;3.83;;
39612;SDS011;25303;48.896;13.342;2024-02-21T06:00:19;12.40;;;5.15;;
39612;SDS011;25303;48.896;13.342;2024-02-21T06:10:24;9.77;;;3.20;;
39612;SDS011;25303;48.896;13.342;2024-02-21T06:20:27;8.35;;;2.78;;
39612;SDS011;25303;48.896;13.342;2024-02-21T06:30:31;7.97;;;2.92;;
39612;SDS011;25303;48.896;13.342;2024-02-21T06:40:34;10.73;;;4.10;;
39612;SDS011;25303;48.896;13.342;2024-02-21T06:50:42;8.85;;;2.92;;
39612;SDS011;25303;48.896;13.342;2024-02-21T07:00:45;9.00;;;3.15;;
39612;SDS011;25303;48.896;13.342;2024-02-21T07:10:50;10.77;;;4.50;;
39612;SDS011;25303;48.896;13.342;2024-02-21T07:20:53;11.38;;;4.90;;
39612;SDS011;25303;48.896;13.342;2024-02-21T07:30:59;8.77;;;3.30;;
39612;SDS011;25303;48.896;13.342;2024-02-21T07:41:03;9.15;;;3.30;;
39612;SDS011;25303;48.896;13.342;2024-02-21T07:51:08;11.00;;;2.75;;
39612;SDS011;25303;48.896;13.342;2024-02-21T08:01:11;14.00;;;3.67;;
39612;SDS011;25303;48.896;13.342;2024-02-21T08:11:16;7.88;;;2.80;;
39612;SDS011;25303;48.896;13.342;2024-02-21T08:21:19;7.80;;;2.67;;
39612;SDS011;25303;48.896;13.342;2024-02-21T08:31:23;5.95;;;2.67;;
39612;SDS011;25303;48.896;13.342;2024-02-21T08:41:33;6.80;;;2.33;;
39612;SDS011;25303;48.896;13.342;2024-02-21T08:51:58;6.35;;;1.50;;
39612;SDS011;25303;48.896;13.342;2024-02-21T09:02:01;4.38;;;1.85;;
39612;SDS011;25303;48.896;13.342;2024-02-21T09:12:07;11.15;;;2.58;;
39612;SDS011;25303;48.896;13.342;2024-02-21T09:22:10;6.78;;;2.40;;
39612;SDS011;25303;48.896;13.342;2024-02-21T09:32:15;8.70;;;3.10;;
39612;SDS011;25303;48.896;13.342;2024-02-21T09:42:18;8.32;;;2.30;;
39612;SDS011;25303;48.896;13.342;2024-02-21T09:52:25;11.40;;;2.70;;
39612;SDS011;25303;48.896;13.342;2024-02-21T10:02:29;10.13;;;2.70;;
39612;SDS011;25303;48.896;13.342;2024-02-21T10:12:34;7.93;;;2.67;;
39612;SDS011;25303;48.896;13.342;2024-02-21T10:22:37;7.15;;;2.63;;
39612;SDS011;25303;48.896;13.342;2024-02-21T10:32:49;13.63;;;4.40;;
39612;SDS011;25303;48.896;13.342;2024-02-21T10:42:56;7.20;;;2.80;;
39612;SDS011;25303;48.896;13.342;2024-02-21T10:53:05;10.97;;;2.50;;
39612;SDS011;25303;48.896;13.342;2024-02-21T11:03:15;6.55;;;1.83;;
39612;SDS011;25303;48.896;13.342;2024-02-21T11:13:29;7.07;;;1.83;;
39612;SDS011;25303;48.896;13.342;2024-02-21T11:23:34;7.82;;;1.42;;
39612;SDS011;25303;48.896;13.342;2024-02-21T11:33:40;5.57;;;1.00;;
39612;SDS011;25303;48.896;13.342;2024-02-21T11:43:44;6.72;;;1.30;;
39612;SDS011;25303;48.896;13.342;2024-02-21T11:53:49;7.03;;;1.50;;
39612;SDS011;25303;48.896;13.342;2024-02-21T12:04:02;5.60;;;1.52;;
39612;SDS011;25303;48.896;13.342;2024-02-21T12:14:06;5.28;;;1.35;;
39612;SDS011;25303;48.896;13.342;2024-02-21T12:24:13;6.75;;;1.30;;
39612;SDS011;25303;48.896;13.342;2024-02-21T12:34:18;5.18;;;0.90;;
39612;SDS011;25303;48.896;13.342;2024-02-21T12:44:38;5.32;;;0.90;;
39612;SDS011;25303;48.896;13.342;2024-02-21T12:54:43;3.83;;;0.90;;
39612;SDS011;25303;48.896;13.342;2024-02-21T13:04:46;3.08;;;0.80;;
39612;SDS011;25303;48.896;13.342;2024-02-21T13:14:51;5.80;;;1.23;;
39612;SDS011;25303;48.896;13.342;2024-02-21T13:24:54;3.05;;;0.93;;
39612;SDS011;25303;48.896;13.342;2024-02-21T13:35:00;3.10;;;1.00;;
39612;SDS011;25303;48.896;13.342;2024-02-21T13:45:05;2.60;;;0.90;;
39612;SDS011;25303;48.896;13.342;2024-02-21T13:55:11;4.07;;;0.77;;
39612;SDS011;25303;48.896;13.342;2024-02-21T14:05:14;4.47;;;0.90;;
39612;SDS011;25303;48.896;13.342;2024-02-21T14:15:19;2.40;;;0.98;;
39612;SDS011;25303;48.896;13.342;2024-02-21T14:25:22;6.57;;;1.40;;
39612;SDS011;25303;48.896;13.342;2024-02-21T14:35:27;4.82;;;1.30;;
39612;SDS011;25303;48.896;13.342;2024-02-21T14:45:30;4.88;;;1.25;;
39612;SDS011;25303;48.896;13.342;2024-02-21T14:55:35;4.25;;;0.93;;
39612;SDS011;25303;48.896;13.342;2024-02-21T15:05:39;3.90;;;1.00;;
39612;SDS011;25303;48.896;13.342;2024-02-21T15:15:44;4.43;;;1.00;;
39612;SDS011;25303;48.896;13.342;2024-02-21T15:25:49;6.30;;;1.02;;
39612;SDS011;25303;48.896;13.342;2024-02-21T15:35:54;5.43;;;1.70;;
39612;SDS011;25303;48.896;13.342;2024-02-21T15:45:57;6.10;;;2.33;;
39612;SDS011;25303;48.896;13.342;2024-02-21T15:56:02;9.07;;;3.42;;
39612;SDS011;25303;48.896;13.342;2024-02-21T16:06:06;4.28;;;1.40;;
39612;SDS011;25303;48.896;13.342;2024-02-21T16:16:12;4.25;;;1.13;;
39612;SDS011;25303;48.896;13.342;2024-02-21T16:26:16;2.40;;;0.82;;
39612;SDS011;25303;48.896;13.342;2024-02-21T16:36:21;3.05;;;1.00;;
39612;SDS011;25303;48.896;13.342;2024-02-21T16:46:25;1.80;;;0.70;;
39612;SDS011;25303;48.896;13.342;2024-02-21T16:56:31;3.05;;;0.77;;
39612;SDS011;25303;48.896;13.342;2024-02-21T17:06:34;3.28;;;0.90;;
39612;SDS011;25303;48.896;13.342;2024-02-21T17:16:39;2.90;;;0.95;;
39612;SDS011;25303;48.896;13.342;2024-02-21T17:26:43;1.42;;;0.75;;
39612;SDS011;25303;48.896;13.342;2024-02-21T17:36:47;3.33;;;0.98;;
39612;SDS011;25303;48.896;13.342;2024-02-21T17:46:51;2.58;;;0.98;;
39612;SDS011;25303;48.896;13.342;2024-02-21T17:56:56;4.78;;;1.42;;
39612;SDS011;25303;48.896;13.342;2024-02-21T18:07:03;5.80;;;1.45;;
39612;SDS011;25303;48.896;13.342;2024-02-21T18:17:10;4.30;;;1.70;;
39612;SDS011;25303;48.896;13.342;2024-02-21T18:27:16;2.75;;;1.10;;
39612;SDS011;25303;48.896;13.342;2024-02-21T18:37:20;2.58;;;1.17;;
39612;SDS011;25303;48.896;13.342;2024-02-21T18:47:26;4.65;;;1.10;;
39612;SDS011;25303;48.896;13.342;2024-02-21T18:57:30;2.80;;;1.20;;
39612;SDS011;25303;48.896;13.342;2024-02-21T19:07:35;4.82;;;1.30;;
39612;SDS011;25303;48.896;13.342;2024-02-21T19:17:40;2.65;;;0.77;;
39612;SDS011;25303;48.896;13.342;2024-02-21T19:27:44;6.85;;;1.40;;
39612;SDS011;25303;48.896;13.342;2024-02-21T19:37:48;4.22;;;1.48;;
39612;SDS011;25303;48.896;13.342;2024-02-21T19:47:52;4.70;;;1.40;;
39612;SDS011;25303;48.896;13.342;2024-02-21T19:57:57;3.55;;;1.10;;
39612;SDS011;25303;48.896;13.342;2024-02-21T20:08:00;4.05;;;1.20;;
39612;SDS011;25303;48.896;13.342;2024-02-21T20:18:05;4.72;;;0.93;;
39612;SDS011;25303;48.896;13.342;2024-02-21T20:28:08;2.80;;;0.85;;
39612;SDS011;25303;48.896;13.342;2024-02-21T20:38:15;4.22;;;1.10;;
39612;SDS011;25303;48.896;13.342;2024-02-21T20:48:19;3.28;;;0.75;;
39612;SDS011;25303;48.896;13.342;2024-02-21T20:58:23;1.63;;;0.70;;
39612;SDS011;25303;48.896;13.342;2024-02-21T21:08:27;2.40;;;0.80;;
39612;SDS011;25303;48.896;13.342;2024-02-21T21:18:31;4.88;;;0.90;;
39612;SDS011;25303;48.896;13.342;2024-02-21T21:28:35;2.58;;;0.70;;
39612;SDS011;25303;48.896;13.342;2024-02-21T21:38:40;1.67;;;0.60;;
39612;SDS011;25303;48.896;13.342;2024-02-21T21:48:49;1.40;;;0.50;;
39612;SDS011;25303;48.896;13.342;2024-02-21T21:58:54;2.90;;;0.60;;
39612;SDS011;25303;48.896;13.342;2024-02-21T22:08:57;1.63;;;0.43;;
39612;SDS011;25303;48.896;13.342;2024-02-21T22:19:02;1.88;;;0.50;;
39612;SDS011;25303;48.896;13.342;2024-02-21T22:29:05;2.17;;;0.38;;
39612;SDS011;25303;48.896;13.342;2024-02-21T22:39:09;0.77;;;0.32;;
39612;SDS011;25303;48.896;13.342;2024-02-21T22:49:12;2.22;;;0.50;;
39612;SDS011;25303;48.896;13.342;2024-02-21T22:59:17;1.08;;;0.30;;
39612;SDS011;25303;48.896;13.342;2024-02-21T23:09:21;1.23;;;0.40;;
39612;SDS011;25303;48.896;13.342;2024-02-21T23:19:27;0.60;;;0.30;;
39612;SDS011;25303;48.896;13.342;2024-02-21T23:29:30;2.22;;;0.40;;
39612;SDS011;25303;48.896;13.342;2024-02-21T23:39:35;1.60;;;0.45;;
39612;SDS011;25303;48.896;13.342;2024-02-21T23:49:38;2.30;;;0.43;;
39612;SDS011;25303;48.896;13.342;2024-02-21T23:59:44;0.80;;;0.30;;
